Time;durP1;ratioP1;P1;durP2;ratioP2;P2;SDS_P1;SDS_P2;PMS_P1;PMS_P2;Temp;Humidity;BMP_temperature;BMP_pressure;BME280_temperature;BME280_humidity;BME280_pressure;Samples;Min_cycle;Max_cycle;Signal;HPM_P1;HPM_P2
2024/03/20 00:00:01;;;;;;;3.47;1.92;;;;;;;7.21;69.38;93037.47;2071349;69;20144;-78
2024/03/20 00:02:38;;;;;;;5.70;2.08;;;;;;;7.31;68.32;93032.66;2071242;69;20163;-77
2024/03/20 00:05:04;;;;;;;3.28;1.83;;;;;;;7.30;68.07;93034.72;2071338;69;20155;-80
2024/03/20 00:07:30;;;;;;;4.28;1.85;;;;;;;7.20;68.62;93033.94;2071513;69;20183;-82
2024/03/20 00:09:55;;;;;;;5.63;2.40;;;;;;;7.25;68.62;93026.59;2071574;69;20709;-81
2024/03/20 00:12:21;;;;;;;4.32;2.25;;;;;;;7.29;67.85;93033.25;2071712;69;20150;-79
2024/03/20 00:14:48;;;;;;;5.72;2.42;;;;;;;7.17;67.81;93021.09;2071268;69;20604;-85
2024/03/20 00:17:14;;;;;;;3.88;2.00;;;;;;;6.97;69.35;93022.31;2071374;69;20604;-79
2024/03/20 00:19:40;;;;;;;4.20;1.95;;;;;;;7.10;68.42;93028.28;2071177;69;20692;-80
2024/03/20 00:22:05;;;;;;;2.70;1.80;;;;;;;7.20;68.30;93030.41;2071368;69;20628;-80
2024/03/20 00:24:31;;;;;;;4.50;1.90;;;;;;;7.24;68.43;93019.50;2067968;69;20231;-84
2024/03/20 00:30:44;;;;;;;5.20;1.90;;;;;;;7.14;67.88;93031.38;2072553;69;20202;-80
2024/03/20 00:33:11;;;;;;;5.38;2.55;;;;;;;7.10;68.88;93027.53;2071966;69;20271;-80
2024/03/20 00:39:24;;;;;;;4.68;1.90;;;;;;;6.68;69.95;93022.09;2071728;69;20127;-84
2024/03/20 00:41:50;;;;;;;3.50;1.75;;;;;;;6.58;70.20;92982.88;2068412;69;20204;-82
2024/03/20 00:44:17;;;;;;;2.97;1.90;;;;;;;6.87;69.63;93008.22;2071459;69;20158;-86
2024/03/20 00:46:43;;;;;;;4.15;1.60;;;;;;;6.87;69.19;93011.78;2071683;69;20137;-84
2024/03/20 00:49:08;;;;;;;3.90;1.45;;;;;;;6.89;68.73;93019.59;2071803;69;20653;-84
2024/03/20 00:51:35;;;;;;;3.40;1.70;;;;;;;6.91;68.13;93016.22;2072261;69;20175;-85
2024/03/20 00:54:01;;;;;;;3.55;1.60;;;;;;;6.87;68.65;93019.44;2071708;69;20576;-82
2024/03/20 00:56:26;;;;;;;2.55;1.70;;;;;;;6.85;67.77;93022.81;2071638;69;20151;-81
2024/03/20 00:58:52;;;;;;;4.60;1.60;;;;;;;6.73;68.96;93010.66;2071610;69;20155;-81
2024/03/20 01:01:18;;;;;;;2.88;1.83;;;;;;;6.68;69.18;93008.84;2068379;69;20238;-81
2024/03/20 01:03:43;;;;;;;5.60;1.90;;;;;;;6.85;68.76;93013.69;2071825;69;20221;-83
2024/03/20 01:06:09;;;;;;;3.03;1.60;;;;;;;6.68;68.22;93000.44;2071623;69;20682;-79
2024/03/20 01:08:38;;;;;;;3.63;1.70;;;;;;;6.63;68.77;93002.19;2071737;69;20172;-83
2024/03/20 01:11:04;;;;;;;4.03;1.52;;;;;;;6.64;68.63;93011.31;2071654;69;20129;-77
2024/03/20 01:13:30;;;;;;;1.92;1.38;;;;;;;6.56;69.17;93011.44;2071740;69;20256;-78
2024/03/20 01:15:55;;;;;;;6.95;1.75;;;;;;;6.54;69.03;93008.44;2071743;69;20621;-76
2024/03/20 01:22:09;;;;;;;6.90;1.50;;;;;;;6.51;69.05;93020.06;2071852;69;20193;-79
2024/03/20 01:24:34;;;;;;;3.05;1.80;;;;;;;6.50;69.58;93018.56;2071738;69;20255;-80
2024/03/20 01:27:00;;;;;;;5.05;1.45;;;;;;;6.56;68.75;93017.03;2068384;69;20749;-80
2024/03/20 01:29:26;;;;;;;3.58;1.58;;;;;;;6.48;68.79;93007.25;2071752;69;20148;-80
2024/03/20 01:35:39;;;;;;;2.47;1.63;;;;;;;6.33;69.10;92996.97;2071546;69;20218;-79
2024/03/20 01:38:05;;;;;;;3.20;1.40;;;;;;;6.31;68.91;93008.72;2068032;69;20235;-78
2024/03/20 01:40:30;;;;;;;3.33;1.58;;;;;;;6.36;68.76;92999.34;2071651;69;20527;-78
2024/03/20 01:42:56;;;;;;;2.53;1.60;;;;;;;6.30;69.26;93000.91;2071640;69;20136;-78
2024/03/20 01:45:22;;;;;;;3.65;1.40;;;;;;;6.30;68.54;93004.44;2071562;69;20163;-81
2024/03/20 01:47:47;;;;;;;3.40;1.80;;;;;;;6.24;69.78;93008.81;2068122;69;20235;-79
2024/03/20 01:50:14;;;;;;;4.43;1.45;;;;;;;6.25;68.96;93008.22;2071516;69;20148;-78
2024/03/20 01:52:54;;;;;;;3.00;1.67;;;;;;;6.23;69.05;93005.28;2071332;69;20187;-77
2024/03/20 01:55:23;;;;;;;2.05;1.50;;;;;;;6.22;68.40;92998.19;2071631;69;20239;-79
2024/03/20 01:57:53;;;;;;;4.63;1.50;;;;;;;6.20;69.44;93003.63;2065503;69;20607;-79
2024/03/20 02:00:23;;;;;;;2.53;1.83;;;;;;;6.24;69.30;93006.75;2071518;69;20192;-79
2024/03/20 02:02:53;;;;;;;5.50;1.67;;;;;;;6.16;69.54;93005.34;2071472;69;20591;-78
2024/03/20 02:05:19;;;;;;;5.45;1.50;;;;;;;6.17;69.37;93001.97;2071640;69;20144;-81
2024/03/20 02:07:45;;;;;;;1.95;1.30;;;;;;;6.03;70.17;92992.44;2071502;69;20144;-80
2024/03/20 02:10:11;;;;;;;3.70;1.52;;;;;;;6.07;68.89;92996.31;2071339;69;20599;-79
2024/03/20 02:12:37;;;;;;;2.63;1.30;;;;;;;6.03;68.63;93003.63;2071528;69;20225;-78
2024/03/20 02:15:09;;;;;;;3.58;1.50;;;;;;;5.87;69.46;93000.22;2067539;69;20185;-75
2024/03/20 02:17:41;;;;;;;5.63;1.90;;;;;;;5.95;69.05;93000.16;2071317;69;20306;-76
2024/03/20 02:20:08;;;;;;;5.30;1.38;;;;;;;6.02;69.30;93005.66;2068242;69;20240;-80
2024/03/20 02:26:21;;;;;;;3.28;1.30;;;;;;;5.83;69.34;92997.81;2071626;69;20266;-78
2024/03/20 02:28:47;;;;;;;3.55;1.50;;;;;;;5.65;71.63;92995.56;2071405;69;20251;-78
2024/03/20 02:31:14;;;;;;;3.88;1.60;;;;;;;5.70;70.48;92986.22;2068202;69;20174;-82
2024/03/20 02:33:43;;;;;;;3.38;1.48;;;;;;;5.82;70.74;92998.41;2071307;69;20159;-79
2024/03/20 02:36:09;;;;;;;3.50;1.52;;;;;;;5.75;70.24;92990.81;2071245;69;20148;-77
2024/03/20 02:38:41;;;;;;;2.75;1.48;;;;;;;5.77;69.70;93002.16;2071465;69;20145;-78
2024/03/20 02:41:07;;;;;;;2.17;1.40;;;;;;;5.74;69.70;92998.47;2071464;69;20154;-77
2024/03/20 02:43:34;;;;;;;2.00;1.50;;;;;;;5.76;70.11;92998.63;2068082;69;20120;-78
2024/03/20 02:46:00;;;;;;;2.75;1.38;;;;;;;5.65;69.05;93004.69;2071380;69;20160;-78
2024/03/20 02:48:25;;;;;;;2.28;1.33;;;;;;;5.58;69.33;93000.63;2071253;69;20132;-79
2024/03/20 02:50:51;;;;;;;4.53;1.38;;;;;;;5.69;69.54;93007.81;2071435;69;20136;-78
2024/03/20 02:53:17;;;;;;;2.75;1.35;;;;;;;5.69;69.36;93002.22;2071368;69;20145;-80
2024/03/20 02:55:43;;;;;;;2.72;1.50;;;;;;;5.60;69.57;92994.50;2071354;69;20231;-80
2024/03/20 02:58:09;;;;;;;2.03;1.55;;;;;;;5.60;69.41;92995.22;2071335;69;20210;-79
2024/03/20 03:00:35;;;;;;;2.17;1.38;;;;;;;5.56;69.94;92997.69;2071128;69;20125;-80
2024/03/20 03:06:48;;;;;;;1.58;1.20;;;;;;;5.45;69.99;92991.81;2071282;69;20639;-77
2024/03/20 03:09:18;;;;;;;2.85;1.35;;;;;;;5.40;70.24;93001.16;2071348;69;20231;-79
2024/03/20 03:11:44;;;;;;;3.83;1.40;;;;;;;5.38;70.63;93004.53;2067892;69;20511;-81
2024/03/20 03:14:15;;;;;;;5.45;1.60;;;;;;;5.50;70.46;93002.75;2071525;69;20632;-79
2024/03/20 03:16:41;;;;;;;4.05;1.50;;;;;;;5.46;69.09;92996.84;2071186;69;20566;-80
2024/03/20 03:19:09;;;;;;;1.88;1.35;;;;;;;5.41;69.21;92997.81;2071331;69;20614;-80
2024/03/20 03:21:36;;;;;;;2.35;1.30;;;;;;;5.34;70.01;92995.81;2067635;69;20520;-81
2024/03/20 03:24:04;;;;;;;2.17;1.45;;;;;;;5.42;69.49;93004.88;2071327;69;20184;-79
2024/03/20 03:26:31;;;;;;;1.75;1.38;;;;;;;5.40;69.83;93003.94;2068110;69;20232;-78
2024/03/20 03:28:56;;;;;;;2.53;1.50;;;;;;;5.33;69.92;92997.13;2071457;69;20612;-79
2024/03/20 03:31:23;;;;;;;2.00;1.27;;;;;;;5.37;69.40;92997.47;2070922;69;20607;-81
2024/03/20 03:33:49;;;;;;;2.67;1.40;;;;;;;5.30;69.88;93003.84;2071139;69;20146;-77
2024/03/20 03:36:14;;;;;;;3.90;1.50;;;;;;;5.26;70.50;93001.44;2071205;69;20655;-80
2024/03/20 03:38:40;;;;;;;5.15;2.47;;;;;;;4.95;70.46;93009.28;2070881;69;20588;-81
2024/03/20 03:41:06;;;;;;;9.30;4.20;;;;;;;5.13;71.03;93004.50;2067978;69;20644;-76
2024/03/20 03:43:31;;;;;;;6.90;3.30;;;;;;;5.21;70.81;92999.63;2071413;69;20140;-77
2024/03/20 03:45:57;;;;;;;7.88;3.20;;;;;;;5.30;69.97;93003.84;2071352;69;20152;-75
2024/03/20 03:48:24;;;;;;;6.60;3.20;;;;;;;5.29;70.26;93005.16;2071105;69;20604;-77
2024/03/20 03:50:50;;;;;;;5.43;2.58;;;;;;;5.20;69.84;93006.50;2071296;69;20168;-78
2024/03/20 03:53:17;;;;;;;5.32;2.17;;;;;;;5.18;70.37;93005.59;2071277;69;20175;-78
2024/03/20 03:55:43;;;;;;;5.32;2.53;;;;;;;5.15;69.85;93001.91;2071239;69;20156;-78
2024/03/20 03:58:09;;;;;;;4.22;2.28;;;;;;;5.14;69.13;93008.78;2071200;69;20145;-77
2024/03/20 04:00:37;;;;;;;4.50;2.00;;;;;;;5.12;69.25;93007.88;2071497;69;20132;-77
2024/03/20 04:03:04;;;;;;;5.28;2.40;;;;;;;5.04;69.94;92994.72;2068422;69;20234;-80
2024/03/20 04:05:33;;;;;;;2.60;1.70;;;;;;;4.98;69.93;93001.81;2071948;69;20594;-80
2024/03/20 04:07:59;;;;;;;3.70;1.70;;;;;;;5.05;69.93;93012.94;2071637;69;20608;-77
2024/03/20 04:10:26;;;;;;;12.95;7.53;;;;;;;4.94;70.47;93005.00;2071566;69;20176;-81
2024/03/20 04:12:52;;;;;;;13.05;6.32;;;;;;;4.84;70.41;92995.75;2071829;69;20183;-79
2024/03/20 04:15:17;;;;;;;5.70;3.75;;;;;;;4.77;70.30;93000.09;2071858;69;20243;-79
2024/03/20 04:17:43;;;;;;;7.15;3.78;;;;;;;4.90;70.08;93009.50;2071675;69;20227;-78
2024/03/20 04:20:12;;;;;;;5.85;2.80;;;;;;;4.82;70.34;93015.13;2071747;69;20599;-77
2024/03/20 04:22:39;;;;;;;4.78;2.40;;;;;;;4.81;71.16;93011.59;2071694;69;20155;-79
2024/03/20 04:25:05;;;;;;;6.88;2.50;;;;;;;4.82;70.18;93009.53;2071741;69;20144;-79
2024/03/20 04:27:37;;;;;;;3.13;2.45;;;;;;;4.77;70.62;93019.63;2068376;69;20623;-82
2024/03/20 04:30:12;;;;;;;5.57;2.60;;;;;;;4.85;70.15;93022.34;2071438;69;20255;-80
2024/03/20 04:32:39;;;;;;;6.90;4.28;;;;;;;4.83;69.96;93030.56;2071725;69;20260;-79
2024/03/20 04:35:05;;;;;;;6.47;3.70;;;;;;;4.87;68.82;93025.31;2071611;69;20631;-78
2024/03/20 04:37:31;;;;;;;9.80;4.95;;;;;;;4.73;70.57;93029.69;2071791;69;20156;-78
2024/03/20 04:39:56;;;;;;;8.90;4.30;;;;;;;4.75;70.18;93027.06;2068276;69;20156;-77
2024/03/20 04:42:22;;;;;;;8.48;5.22;;;;;;;4.63;69.83;93025.97;2068429;69;20152;-80
2024/03/20 04:44:47;;;;;;;19.00;10.05;;;;;;;4.55;70.84;93026.03;2071685;69;20155;-79
2024/03/20 04:47:13;;;;;;;10.25;5.53;;;;;;;4.74;70.39;93025.56;2071565;69;20209;-79
2024/03/20 04:49:39;;;;;;;9.93;5.03;;;;;;;4.76;70.25;93026.47;2071718;69;20139;-79
2024/03/20 04:52:06;;;;;;;10.13;4.55;;;;;;;4.69;69.64;93021.69;2068409;69;20510;-79
2024/03/20 04:54:31;;;;;;;7.80;4.32;;;;;;;4.60;69.51;93036.22;2068571;69;20655;-79
2024/03/20 04:56:57;;;;;;;5.85;3.42;;;;;;;4.54;69.83;93030.88;2071814;69;20231;-79
2024/03/20 04:59:22;;;;;;;4.55;2.90;;;;;;;4.65;70.03;93037.34;2068599;69;20500;-80
2024/03/20 05:01:49;;;;;;;6.95;3.60;;;;;;;4.49;70.00;93025.47;2071656;69;20160;-78
2024/03/20 05:04:14;;;;;;;5.72;3.00;;;;;;;4.60;70.12;93039.03;2071666;69;20144;-77
2024/03/20 05:06:40;;;;;;;7.40;3.50;;;;;;;4.49;70.33;93033.84;2071924;69;20661;-77
2024/03/20 05:09:05;;;;;;;6.85;3.53;;;;;;;4.60;69.84;93044.59;2071702;69;20184;-78
2024/03/20 05:11:31;;;;;;;5.38;3.42;;;;;;;4.50;69.50;93036.09;2071909;69;20170;-80
2024/03/20 05:13:57;;;;;;;6.78;3.88;;;;;;;4.60;69.53;93039.03;2068236;69;20196;-78
2024/03/20 05:16:23;;;;;;;11.00;5.20;;;;;;;4.64;69.64;93047.75;2071772;69;20159;-79
2024/03/20 05:18:48;;;;;;;15.77;7.22;;;;;;;4.57;69.65;93045.72;2068332;69;20176;-77
2024/03/20 05:21:14;;;;;;;20.77;11.15;;;;;;;4.50;69.95;93035.34;2068005;69;20156;-78
2024/03/20 05:23:40;;;;;;;17.20;9.35;;;;;;;4.51;70.29;93057.09;2071713;69;20152;-78
2024/03/20 05:26:06;;;;;;;11.80;7.45;;;;;;;4.43;70.25;93050.78;2071778;69;20259;-78
2024/03/20 05:28:31;;;;;;;7.90;5.03;;;;;;;4.43;70.23;93048.00;2071602;69;20646;-77
2024/03/20 05:30:57;;;;;;;11.90;5.57;;;;;;;4.40;70.45;93051.94;2065536;69;20152;-80
2024/03/20 05:33:23;;;;;;;10.60;5.28;;;;;;;4.55;69.90;93068.59;2071690;69;20183;-77
2024/03/20 05:35:48;;;;;;;7.78;4.50;;;;;;;4.53;69.94;93070.44;2071601;69;20152;-77
2024/03/20 05:38:14;;;;;;;7.47;4.53;;;;;;;4.42;70.25;93076.44;2071457;69;20278;-79
2024/03/20 05:40:41;;;;;;;8.35;5.00;;;;;;;4.46;70.18;93074.75;2065527;69;20251;-77
2024/03/20 05:43:07;;;;;;;11.77;5.28;;;;;;;4.46;70.25;93076.81;2071614;69;20136;-82
2024/03/20 05:45:33;;;;;;;14.63;7.55;;;;;;;4.22;71.53;93086.53;2071578;69;20159;-79
2024/03/20 05:47:58;;;;;;;15.02;6.40;;;;;;;4.43;70.31;93083.50;2071430;69;20488;-80
2024/03/20 05:50:24;;;;;;;10.23;4.50;;;;;;;4.43;70.63;93087.03;2071586;69;20153;-77
2024/03/20 05:52:50;;;;;;;12.18;5.35;;;;;;;4.50;70.27;93083.50;2071592;69;20228;-77
2024/03/20 05:55:16;;;;;;;8.98;4.28;;;;;;;4.48;70.43;93088.13;2071593;69;20145;-79
2024/03/20 05:57:41;;;;;;;11.50;4.75;;;;;;;4.17;72.27;93099.38;2071639;69;20540;-79
2024/03/20 06:00:15;;;;;;;8.95;5.22;;;;;;;4.37;70.88;93099.69;2068233;69;20672;-79
2024/03/20 06:02:42;;;;;;;13.13;5.68;;;;;;;4.49;70.72;93097.97;2071600;69;20137;-79
2024/03/20 06:05:07;;;;;;;11.13;5.07;;;;;;;4.39;70.60;93091.50;2071203;69;20620;-77
2024/03/20 06:07:33;;;;;;;10.23;5.18;;;;;;;4.41;70.47;93106.38;2071586;69;20579;-78
2024/03/20 06:09:59;;;;;;;7.35;4.32;;;;;;;4.48;70.04;93100.03;2067824;69;20253;-78
2024/03/20 06:12:25;;;;;;;8.55;4.45;;;;;;;4.36;70.75;93106.56;2068069;69;20156;-79
2024/03/20 06:14:53;;;;;;;7.32;4.70;;;;;;;4.51;70.51;93103.75;2071444;69;20188;-77
2024/03/20 06:17:18;;;;;;;7.65;4.13;;;;;;;4.51;70.38;93098.91;2071663;69;20527;-79
2024/03/20 06:23:32;;;;;;;10.63;5.00;;;;;;;4.47;70.62;93109.69;2071489;69;20484;-78
2024/03/20 06:25:58;;;;;;;12.73;5.55;;;;;;;4.48;69.96;93107.66;2071460;69;20599;-79
2024/03/20 06:28:24;;;;;;;6.57;3.55;;;;;;;4.49;69.05;93104.31;2071667;69;20144;-77
2024/03/20 06:30:50;;;;;;;10.65;4.30;;;;;;;4.54;69.17;93106.16;2071792;69;20148;-77
2024/03/20 06:33:15;;;;;;;11.57;4.10;;;;;;;4.74;68.21;93114.81;2071509;69;20152;-79
2024/03/20 06:35:41;;;;;;;10.50;4.70;;;;;;;4.76;67.50;93112.22;2071768;69;20149;-78
2024/03/20 06:41:55;;;;;;;4.85;2.72;;;;;;;4.82;67.77;93119.06;2071553;69;20212;-76
2024/03/20 06:44:21;;;;;;;6.65;3.00;;;;;;;4.76;68.19;93110.16;2071440;69;20148;-76
2024/03/20 06:50:48;;;;;;;10.77;5.00;;;;;;;4.76;68.24;93120.56;2071579;69;20185;-74
2024/03/20 06:53:14;;;;;;;11.43;5.80;;;;;;;4.79;68.35;93127.81;2071611;69;20157;-76
2024/03/20 06:55:43;;;;;;;12.10;6.50;;;;;;;4.77;68.10;93113.72;2071518;69;20152;-78
2024/03/20 06:58:11;;;;;;;14.90;7.18;;;;;;;4.83;68.44;93128.19;2071482;69;20149;-77
2024/03/20 07:00:37;;;;;;;14.90;6.80;;;;;;;4.74;68.56;93128.78;2071419;69;20598;-75
2024/03/20 07:03:03;;;;;;;14.60;6.53;;;;;;;4.78;68.40;93124.28;2070992;69;20147;-78
2024/03/20 07:09:17;;;;;;;13.98;6.25;;;;;;;4.85;68.79;93117.94;2071697;69;20174;-77
2024/03/20 07:11:42;;;;;;;10.75;6.15;;;;;;;4.86;68.73;93121.50;2071464;69;20163;-77
2024/03/20 07:14:08;;;;;;;8.10;5.25;;;;;;;4.94;68.29;93113.06;2071692;69;20595;-76
2024/03/20 07:16:34;;;;;;;11.95;5.75;;;;;;;4.96;67.69;93116.06;2071165;69;20144;-76
2024/03/20 07:18:59;;;;;;;7.88;4.70;;;;;;;5.16;66.33;93123.38;2071679;69;20152;-76
2024/03/20 07:21:25;;;;;;;10.93;5.80;;;;;;;5.23;66.28;93117.03;2071636;69;20260;-76
2024/03/20 07:23:51;;;;;;;7.55;4.38;;;;;;;5.21;66.53;93122.44;2071671;69;20161;-75
2024/03/20 07:26:17;;;;;;;10.18;5.40;;;;;;;5.16;66.88;93122.66;2071559;69;20144;-75
2024/03/20 07:28:43;;;;;;;9.23;6.32;;;;;;;5.21;66.82;93127.28;2071637;69;20144;-76
2024/03/20 07:31:09;;;;;;;11.10;5.88;;;;;;;5.16;67.07;93131.03;2071462;69;20148;-76
2024/03/20 07:33:36;;;;;;;9.88;5.97;;;;;;;5.03;67.66;93120.84;2071391;69;20152;-76
2024/03/20 07:36:02;;;;;;;12.00;6.00;;;;;;;5.29;67.16;93125.19;2071870;69;20235;-76
2024/03/20 07:38:28;;;;;;;11.40;5.38;;;;;;;5.51;67.53;93127.13;2072132;69;20187;-76
2024/03/20 07:40:54;;;;;;;10.70;6.15;;;;;;;6.05;66.50;93127.50;2071748;69;20319;-76
2024/03/20 07:43:20;;;;;;;18.60;7.40;;;;;;;6.48;65.76;93131.03;2068039;69;20199;-76
2024/03/20 07:45:46;;;;;;;13.40;7.35;;;;;;;6.74;65.38;93128.94;2071425;69;20275;-76
2024/03/20 07:48:12;;;;;;;24.85;11.88;;;;;;;7.01;64.07;93128.97;2071884;69;20178;-77
2024/03/20 07:50:39;;;;;;;13.93;7.40;;;;;;;7.30;63.08;93110.34;2071775;69;20172;-77
2024/03/20 07:53:07;;;;;;;9.43;5.07;;;;;;;7.44;63.94;93132.38;2071837;69;20154;-77
2024/03/20 07:55:33;;;;;;;18.50;8.23;;;;;;;7.95;64.53;93128.66;2071860;69;20160;-76
2024/03/20 07:57:59;;;;;;;21.42;8.60;;;;;;;8.04;61.80;93121.63;2068759;69;20595;-78
2024/03/20 08:00:28;;;;;;;15.35;7.03;;;;;;;8.38;63.03;93118.66;2072095;69;20591;-79
2024/03/20 08:02:59;;;;;;;17.77;6.78;;;;;;;8.83;61.64;93124.03;2071737;69;20219;-80
2024/03/20 08:05:28;;;;;;;15.45;7.88;;;;;;;9.31;60.87;93126.84;2071982;69;20152;-81
2024/03/20 08:07:53;;;;;;;31.90;12.90;;;;;;;9.50;59.10;93125.34;2068704;69;20144;-78
2024/03/20 08:10:19;;;;;;;16.35;7.55;;;;;;;9.65;57.11;93119.41;2071987;69;20160;-78
2024/03/20 08:12:45;;;;;;;10.45;4.70;;;;;;;10.05;57.46;93118.69;2072019;69;20148;-79
2024/03/20 08:15:11;;;;;;;11.80;3.97;;;;;;;10.11;55.14;93107.13;2072014;69;20171;-77
2024/03/20 08:17:37;;;;;;;5.60;3.13;;;;;;;10.80;54.24;93111.06;2071958;69;20574;-78
2024/03/20 08:20:03;;;;;;;6.85;3.72;;;;;;;11.28;54.64;93118.44;2071936;69;20206;-78
2024/03/20 08:22:29;;;;;;;14.48;3.42;;;;;;;11.48;54.56;93110.53;2071923;69;20152;-77
2024/03/20 08:24:56;;;;;;;5.30;3.10;;;;;;;11.27;54.41;93111.28;2071925;69;20133;-79
2024/03/20 08:27:26;;;;;;;10.35;3.20;;;;;;;11.73;52.49;93107.16;2071767;69;20571;-78
2024/03/20 08:30:02;;;;;;;7.50;3.42;;;;;;;12.27;52.17;93112.66;2071827;69;20143;-83
2024/03/20 08:32:30;;;;;;;8.43;3.17;;;;;;;12.33;51.43;93093.28;2071813;69;20233;-79
2024/03/20 08:34:56;;;;;;;3.92;2.53;;;;;;;12.90;48.39;93099.47;2072015;69;20181;-80
2024/03/20 08:37:22;;;;;;;4.63;2.40;;;;;;;13.00;47.24;93096.50;2071844;69;20601;-80
2024/03/20 08:39:48;;;;;;;3.92;1.60;;;;;;;12.63;47.17;93076.69;2071853;69;20133;-84
2024/03/20 08:42:14;;;;;;;4.65;1.60;;;;;;;12.95;46.40;93095.53;2071641;69;20657;-79
2024/03/20 08:44:40;;;;;;;3.72;2.08;;;;;;;13.53;45.05;93105.22;2071992;69;20175;-80
2024/03/20 08:47:07;;;;;;;4.00;2.08;;;;;;;13.70;45.62;93087.06;2071686;69;20144;-78
2024/03/20 08:49:37;;;;;;;3.65;1.75;;;;;;;13.96;43.71;93087.75;2071793;69;20218;-79
2024/03/20 08:52:06;;;;;;;1.88;1.20;;;;;;;14.27;43.04;93095.06;2071793;69;20191;-79
2024/03/20 08:54:34;;;;;;;6.95;1.42;;;;;;;14.89;44.19;93094.81;2071799;69;20572;-79
2024/03/20 08:57:03;;;;;;;2.13;1.20;;;;;;;15.47;41.79;93087.03;2071738;69;20172;-79
2024/03/20 08:59:31;;;;;;;4.10;1.30;;;;;;;15.37;41.72;93083.69;2068536;69;20156;-79
2024/03/20 09:01:57;;;;;;;2.50;1.30;;;;;;;15.61;40.72;93081.31;2071660;69;20243;-79
2024/03/20 09:04:22;;;;;;;0.82;0.70;;;;;;;15.39;39.52;93070.34;2071839;69;20142;-80
2024/03/20 09:10:36;;;;;;;1.88;0.70;;;;;;;16.36;39.04;93070.66;2071950;69;20190;-78
2024/03/20 09:13:05;;;;;;;2.25;0.77;;;;;;;17.00;38.97;93069.22;2071819;69;20572;-79
2024/03/20 09:15:31;;;;;;;0.93;0.70;;;;;;;16.32;38.39;93069.75;2071712;69;20201;-80
2024/03/20 09:17:56;;;;;;;0.63;0.55;;;;;;;16.12;38.44;93064.56;2071504;69;20140;-80
2024/03/20 09:20:25;;;;;;;1.88;0.70;;;;;;;16.40;36.78;93058.72;2071614;69;20156;-79
2024/03/20 09:26:38;;;;;;;1.30;0.63;;;;;;;18.00;37.35;93052.66;2071661;69;20182;-78
2024/03/20 09:32:52;;;;;;;1.73;0.90;;;;;;;18.31;36.26;93048.84;2071523;69;20147;-80
2024/03/20 09:35:17;;;;;;;2.17;0.80;;;;;;;18.90;36.81;93047.44;2071704;69;20647;-78
2024/03/20 09:41:36;;;;;;;1.13;0.82;;;;;;;19.84;34.04;93039.94;2071584;69;20354;-79
2024/03/20 09:44:02;;;;;;;1.40;0.80;;;;;;;18.26;35.18;93025.16;2071594;69;20180;-80
2024/03/20 09:46:30;;;;;;;1.85;0.98;;;;;;;19.29;33.65;93024.56;2071135;69;20557;-79
2024/03/20 09:48:56;;;;;;;2.50;1.42;;;;;;;19.69;33.99;93023.72;2071482;69;20179;-80
2024/03/20 09:51:24;;;;;;;1.35;0.88;;;;;;;19.47;34.18;93024.44;2071430;69;20567;-79
2024/03/20 09:53:51;;;;;;;1.20;0.70;;;;;;;20.37;33.31;93017.94;2071549;69;20140;-80
2024/03/20 09:56:20;;;;;;;2.70;0.75;;;;;;;21.17;31.75;93015.22;2071618;69;20143;-79
2024/03/20 09:58:46;;;;;;;1.23;0.82;;;;;;;21.54;32.63;93008.31;2071424;69;20182;-78
2024/03/20 10:01:14;;;;;;;1.13;0.73;;;;;;;21.68;32.13;93010.78;2071678;69;20161;-78
2024/03/20 10:03:40;;;;;;;2.53;0.80;;;;;;;22.17;32.16;93006.22;2071560;69;20171;-78
2024/03/20 10:06:06;;;;;;;2.58;1.55;;;;;;;21.79;32.23;93006.75;2071658;69;20562;-78
2024/03/20 10:08:38;;;;;;;1.10;0.77;;;;;;;21.20;29.98;93005.25;2071652;69;20143;-79
2024/03/20 10:11:05;;;;;;;1.27;0.90;;;;;;;22.43;29.54;93000.34;2071661;69;20147;-79
2024/03/20 10:13:31;;;;;;;0.90;0.60;;;;;;;23.00;29.82;93002.25;2071663;69;20160;-79
2024/03/20 10:16:14;;;;;;;2.13;0.90;;;;;;;22.75;30.22;93001.00;2071285;69;20531;-80
2024/03/20 10:18:44;;;;;;;2.28;1.30;;;;;;;23.13;29.02;93003.19;2071599;69;20133;-80
2024/03/20 10:21:10;;;;;;;3.03;2.15;;;;;;;22.66;30.43;92998.66;2071591;69;20132;-80
2024/03/20 10:23:40;;;;;;;4.93;3.20;;;;;;;22.62;31.32;93001.44;2068459;69;20128;-79
2024/03/20 10:26:06;;;;;;;4.85;1.63;;;;;;;23.42;29.71;92987.22;2068353;69;20141;-79
2024/03/20 10:28:35;;;;;;;2.22;1.23;;;;;;;24.19;28.14;92987.00;2071586;69;20223;-80
2024/03/20 10:31:03;;;;;;;1.75;0.80;;;;;;;24.18;27.97;92986.28;2071659;69;20167;-79
2024/03/20 10:33:29;;;;;;;3.00;0.75;;;;;;;23.20;27.41;92949.50;2071592;69;20592;-79
2024/03/20 10:35:56;;;;;;;1.88;0.70;;;;;;;26.51;26.06;92983.69;2068371;69;20520;-79
2024/03/20 10:38:27;;;;;;;0.63;0.55;;;;;;;24.65;26.95;92975.47;2071576;69;20269;-81
2024/03/20 10:40:53;;;;;;;2.25;0.80;;;;;;;24.41;28.39;92978.00;2071560;69;20214;-81
2024/03/20 10:43:20;;;;;;;1.23;0.70;;;;;;;26.07;25.81;92964.66;2068197;69;20148;-80
2024/03/20 10:45:48;;;;;;;1.83;0.80;;;;;;;26.36;24.77;92976.38;2071483;69;20164;-80
2024/03/20 10:48:19;;;;;;;1.50;0.90;;;;;;;25.97;25.41;92964.56;2071479;69;20604;-80
2024/03/20 10:50:49;;;;;;;4.63;0.98;;;;;;;28.96;24.73;92954.38;2071598;69;20144;-79
2024/03/20 10:53:15;;;;;;;2.75;0.60;;;;;;;28.50;25.07;92973.28;2071676;69;20160;-79
2024/03/20 10:55:44;;;;;;;1.42;0.60;;;;;;;28.88;24.24;92957.97;2071546;69;20147;-79
2024/03/20 10:58:18;;;;;;;2.13;0.65;;;;;;;27.70;22.55;92955.94;2071765;69;20144;-80
2024/03/20 11:00:52;;;;;;;3.05;0.68;;;;;;;30.30;22.01;92958.59;2071677;69;20132;-79
2024/03/20 11:03:41;;;;;;;0.80;0.50;;;;;;;29.29;22.39;92949.84;2071618;69;20128;-79
2024/03/20 11:06:30;;;;;;;1.92;0.65;;;;;;;29.19;22.25;92949.91;2071786;69;20144;-79
2024/03/20 11:09:06;;;;;;;2.33;0.50;;;;;;;30.69;22.63;92947.28;2071584;69;20137;-79
2024/03/20 11:11:33;;;;;;;1.17;0.50;;;;;;;33.44;20.88;92953.91;2071652;69;20160;-79
2024/03/20 11:14:06;;;;;;;1.30;0.82;;;;;;;31.97;20.98;92944.19;2071714;69;20228;-80
2024/03/20 11:16:31;;;;;;;1.65;0.60;;;;;;;33.43;20.45;92942.97;2067970;69;20613;-79
2024/03/20 11:22:44;;;;;;;1.95;0.55;;;;;;;35.87;20.12;92935.91;2071494;69;20193;-79
2024/03/20 11:25:11;;;;;;;1.33;0.50;;;;;;;34.29;20.04;92927.13;2071364;69;20156;-80
2024/03/20 11:27:36;;;;;;;2.47;0.50;;;;;;;35.99;20.36;92932.63;2071405;69;20151;-79
2024/03/20 11:30:04;;;;;;;1.92;0.55;;;;;;;36.26;19.61;92925.91;2068222;69;20524;-80
2024/03/20 11:32:30;;;;;;;1.05;0.70;;;;;;;37.87;18.39;92932.66;2068136;69;20152;-79
2024/03/20 11:34:56;;;;;;;1.40;0.70;;;;;;;37.54;18.51;92927.31;2071598;69;20148;-79
2024/03/20 11:37:21;;;;;;;2.45;0.85;;;;;;;33.59;18.33;92913.47;2071408;69;20170;-78
2024/03/20 11:39:47;;;;;;;2.63;0.80;;;;;;;34.52;19.23;92921.47;2071344;69;20631;-79
2024/03/20 11:42:13;;;;;;;1.30;0.70;;;;;;;34.76;18.66;92908.38;2071367;69;20149;-77
2024/03/20 11:44:40;;;;;;;0.98;0.63;;;;;;;37.97;17.54;92913.19;2068137;69;20524;-78
2024/03/20 11:47:13;;;;;;;3.17;1.00;;;;;;;39.88;16.77;92922.59;2071289;69;20168;-77
2024/03/20 11:49:45;;;;;;;5.70;0.68;;;;;;;41.11;16.33;92914.38;2071477;69;20156;-79
2024/03/20 11:52:15;;;;;;;0.70;0.40;;;;;;;40.69;16.31;92913.56;2071535;69;20194;-77
2024/03/20 11:54:41;;;;;;;2.08;0.80;;;;;;;36.87;17.43;92904.03;2071316;69;20156;-79
2024/03/20 11:57:11;;;;;;;2.65;0.70;;;;;;;39.84;17.04;92908.06;2071463;69;20619;-80
2024/03/20 11:59:37;;;;;;;1.30;0.80;;;;;;;40.37;16.47;92902.59;2071135;69;20156;-78
2024/03/20 12:02:03;;;;;;;1.60;0.70;;;;;;;37.92;17.21;92900.19;2071226;69;20154;-78
2024/03/20 12:04:33;;;;;;;1.42;0.73;;;;;;;38.11;16.59;92906.75;2071283;69;20172;-80
2024/03/20 12:10:46;;;;;;;1.90;0.60;;;;;;;39.48;17.96;92897.97;2071409;69;20127;-79
2024/03/20 12:13:12;;;;;;;3.95;0.80;;;;;;;39.87;17.04;92893.97;2071378;69;20308;-77
2024/03/20 12:15:40;;;;;;;1.80;0.60;;;;;;;38.48;17.34;92888.31;2071270;69;20172;-78
2024/03/20 12:18:06;;;;;;;4.40;0.90;;;;;;;38.37;17.49;92884.41;2071123;69;20148;-77
2024/03/20 12:20:32;;;;;;;7.78;0.90;;;;;;;39.70;17.23;92873.38;2071368;69;20147;-79
2024/03/20 12:22:58;;;;;;;0.63;0.60;;;;;;;39.13;19.03;92870.06;2071863;69;20136;-78
2024/03/20 12:25:25;;;;;;;2.67;1.05;;;;;;;36.46;20.25;92868.84;2068530;69;20516;-79
2024/03/20 12:31:40;;;;;;;2.13;0.70;;;;;;;38.50;17.73;92869.91;2071669;69;20115;-78
2024/03/20 12:34:07;;;;;;;3.90;0.60;;;;;;;38.84;16.48;92882.41;2071696;69;20265;-80
2024/03/20 12:36:33;;;;;;;1.45;0.73;;;;;;;40.58;16.14;92866.19;2071675;69;20143;-79
2024/03/20 12:38:58;;;;;;;0.65;0.50;;;;;;;42.37;17.04;92882.41;2071654;69;20140;-80